createdAt,value
2023-02-17T00:01:33.625Z,97281.70
2023-02-17T00:04:02.215Z,97285.79
2023-02-17T00:06:32.436Z,97289.04
2023-02-17T00:09:00.626Z,97281.41
2023-02-17T00:11:29.086Z,97278.15
2023-02-17T00:13:57.251Z,97274.80
2023-02-17T00:16:28.124Z,97275.49
2023-02-17T00:18:59.547Z,97274.53
2023-02-17T00:21:31.159Z,97273.91
2023-02-17T00:24:00.119Z,97273.58
2023-02-17T00:26:28.769Z,97270.27
2023-02-17T00:28:58.516Z,97263.05
2023-02-17T00:31:26.980Z,97260.45
2023-02-17T00:33:56.275Z,97257.16
2023-02-17T00:36:25.780Z,97257.63
2023-02-17T00:38:56.120Z,97252.95
2023-02-17T00:41:26.042Z,97252.00
2023-02-17T00:43:54.195Z,97253.82
2023-02-17T00:46:23.921Z,97249.36
2023-02-17T00:48:54.538Z,97249.54
2023-02-17T00:51:24.555Z,97249.77
2023-02-17T00:53:52.525Z,97249.85
2023-02-17T00:56:20.486Z,97248.04
2023-02-17T00:58:48.526Z,97249.51
2023-02-17T01:01:17.626Z,97253.17
2023-02-17T01:03:45.956Z,97246.12
2023-02-17T01:06:27.956Z,97244.68
2023-02-17T01:08:56.302Z,97235.95
2023-02-17T01:11:30.096Z,97235.80
2023-02-17T01:14:00.723Z,97227.73
2023-02-17T01:16:38.625Z,97222.73
2023-02-17T01:19:10.310Z,97213.78
2023-02-17T01:21:39.375Z,97209.52
2023-02-17T01:24:13.286Z,97206.60
2023-02-17T01:26:41.585Z,97202.84
2023-02-17T01:29:09.668Z,97201.95
2023-02-17T01:31:39.563Z,97205.30
2023-02-17T01:34:07.960Z,97202.56
2023-02-17T01:36:38.694Z,97203.63
2023-02-17T01:39:06.912Z,97204.09
2023-02-17T01:41:34.940Z,97204.81
2023-02-17T01:44:15.091Z,97203.95
2023-02-17T01:46:49.202Z,97200.95
2023-02-17T01:49:29.889Z,97200.25
2023-02-17T01:52:04.089Z,97194.30
2023-02-17T01:54:42.589Z,97197.62
2023-02-17T01:57:13.134Z,97202.64
2023-02-17T01:59:42.243Z,97206.32
2023-02-17T02:02:11.217Z,97208.60
2023-02-17T02:04:43.480Z,97209.73
2023-02-17T02:07:17.806Z,97212.41
2023-02-17T02:09:53.982Z,97210.15
2023-02-17T02:12:28.186Z,97213.02
2023-02-17T02:15:00.064Z,97208.64
2023-02-17T02:17:37.130Z,97204.27
2023-02-17T02:20:23.933Z,97202.58
2023-02-17T02:23:16.682Z,97199.97
2023-02-17T02:26:09.256Z,97193.95
2023-02-17T02:29:11.300Z,97195.86
2023-02-17T02:32:17.478Z,97199.00
2023-02-17T02:34:58.338Z,97202.78
2023-02-17T02:37:47.203Z,97207.09
2023-02-17T02:40:19.787Z,97195.83
2023-02-17T02:42:48.553Z,97189.40
2023-02-17T02:45:19.402Z,97192.04
2023-02-17T02:47:50.635Z,97191.84
2023-02-17T02:50:58.982Z,97189.08
2023-02-17T02:53:33.252Z,97186.75
2023-02-17T02:56:20.342Z,97183.96
2023-02-17T02:59:06.491Z,97186.75
2023-02-17T03:02:20.451Z,97188.43
2023-02-17T03:05:05.622Z,97186.23
2023-02-17T03:07:39.834Z,97189.17
2023-02-17T03:10:10.061Z,97187.90
2023-02-17T03:12:39.367Z,97193.70
2023-02-17T03:15:16.607Z,97192.77
2023-02-17T03:17:44.607Z,97195.78
2023-02-17T03:20:15.296Z,97189.50
2023-02-17T03:22:48.045Z,97194.48
2023-02-17T03:25:17.026Z,97192.66
2023-02-17T03:27:45.308Z,97185.34
2023-02-17T03:30:15.702Z,97192.11
2023-02-17T03:32:44.058Z,97189.58
2023-02-17T03:35:12.067Z,97187.11
2023-02-17T03:37:40.049Z,97189.52
2023-02-17T03:40:10.066Z,97187.39
2023-02-17T03:42:38.122Z,97189.27
2023-02-17T03:45:06.683Z,97202.77
2023-02-17T03:47:34.811Z,97195.70
2023-02-17T03:50:02.813Z,97201.98
2023-02-17T03:52:31.024Z,97205.63
2023-02-17T03:54:59.411Z,97205.67
2023-02-17T03:57:27.481Z,97204.56
2023-02-17T03:59:55.669Z,97200.62
2023-02-17T04:02:23.717Z,97198.77
2023-02-17T04:04:51.900Z,97196.73
2023-02-17T04:07:20.067Z,97196.09
2023-02-17T04:09:48.557Z,97196.25
2023-02-17T04:12:16.631Z,97195.71
2023-02-17T04:14:44.701Z,97187.86
2023-02-17T04:17:12.746Z,97188.27
2023-02-17T04:19:40.840Z,97189.39
2023-02-17T04:22:09.112Z,97184.66
2023-02-17T04:24:37.501Z,97186.60
2023-02-17T04:27:05.975Z,97187.38
2023-02-17T04:29:34.040Z,97184.48
2023-02-17T04:32:02.349Z,97186.95
2023-02-17T04:34:30.605Z,97181.45
2023-02-17T04:36:58.676Z,97184.23
2023-02-17T04:39:26.512Z,97187.59
2023-02-17T04:41:57.897Z,97180.68
2023-02-17T04:44:25.914Z,97180.95
2023-02-17T04:46:54.148Z,97182.13
2023-02-17T04:49:22.205Z,97176.45
2023-02-17T04:51:50.295Z,97174.70
2023-02-17T04:54:18.445Z,97175.94
2023-02-17T04:56:46.726Z,97171.77
2023-02-17T04:59:14.695Z,97177.17
2023-02-17T05:01:42.827Z,97176.98
2023-02-17T05:04:10.936Z,97173.06
2023-02-17T05:06:39.223Z,97172.31
2023-02-17T05:09:07.261Z,97179.96
2023-02-17T05:11:35.272Z,97176.15
2023-02-17T05:14:03.337Z,97175.20
2023-02-17T05:16:31.406Z,97183.52
2023-02-17T05:18:59.287Z,97177.86
2023-02-17T05:21:27.348Z,97178.02
2023-02-17T05:23:55.626Z,97178.27
2023-02-17T05:26:23.592Z,97184.91
2023-02-17T05:28:51.661Z,97181.98
2023-02-17T05:31:19.946Z,97185.67
2023-02-17T05:33:48.039Z,97189.47
2023-02-17T05:36:16.078Z,97185.98
2023-02-17T05:38:46.274Z,97193.66
2023-02-17T05:41:14.275Z,97192.07
2023-02-17T05:43:42.658Z,97191.55
2023-02-17T05:46:10.855Z,97198.73
2023-02-17T05:48:39.306Z,97193.91
2023-02-17T05:51:07.481Z,97198.30
2023-02-17T05:53:35.553Z,97199.06
2023-02-17T05:56:03.901Z,97204.70
2023-02-17T05:58:32.307Z,97212.11
2023-02-17T06:01:00.388Z,97203.17
2023-02-17T06:03:28.689Z,97203.56
2023-02-17T06:05:56.610Z,97200.66
2023-02-17T06:08:24.821Z,97202.73
2023-02-17T06:10:53.798Z,97201.81
2023-02-17T06:13:22.010Z,97200.64
2023-02-17T06:15:50.056Z,97198.45
2023-02-17T06:18:18.388Z,97202.14
2023-02-17T06:20:46.705Z,97193.73
2023-02-17T06:23:14.859Z,97204.70
2023-02-17T06:25:44.263Z,97197.77
2023-02-17T06:28:12.342Z,97199.85
2023-02-17T06:30:40.630Z,97196.96
2023-02-17T06:33:09.109Z,97196.41
2023-02-17T06:35:37.392Z,97200.39
2023-02-17T06:38:05.530Z,97201.79
2023-02-17T06:40:33.732Z,97205.86
2023-02-17T06:43:01.690Z,97204.48
2023-02-17T06:45:29.665Z,97211.33
2023-02-17T06:47:57.740Z,97210.32
2023-02-17T06:50:26.014Z,97212.00
2023-02-17T06:52:54.296Z,97217.09
2023-02-17T06:55:22.380Z,97209.92
2023-02-17T06:57:50.537Z,97217.60
2023-02-17T07:00:19.283Z,97216.23
2023-02-17T07:02:47.394Z,97224.28
2023-02-17T07:05:16.794Z,97222.15
2023-02-17T07:07:44.876Z,97223.16
2023-02-17T07:10:13.439Z,97219.36
2023-02-17T07:12:41.637Z,97222.91
2023-02-17T07:15:12.401Z,97216.11
2023-02-17T07:17:40.679Z,97214.86
2023-02-17T07:20:09.645Z,97219.89
2023-02-17T07:22:37.916Z,97218.66
2023-02-17T07:25:07.111Z,97217.43
2023-02-17T07:27:37.266Z,97220.51
2023-02-17T07:30:06.616Z,97217.98
2023-02-17T07:32:35.734Z,97219.59
2023-02-17T07:35:03.906Z,97220.48
2023-02-17T07:37:32.080Z,97221.78
2023-02-17T07:40:00.576Z,97221.44
2023-02-17T07:42:28.802Z,97221.09
2023-02-17T07:44:57.167Z,97214.04
2023-02-17T07:47:25.113Z,97214.55
2023-02-17T07:49:53.768Z,97221.96
2023-02-17T07:52:23.480Z,97222.64
2023-02-17T07:54:51.448Z,97222.51
2023-02-17T07:57:19.550Z,97222.77
2023-02-17T07:59:48.190Z,97223.55
2023-02-17T08:02:16.512Z,97230.89
2023-02-17T08:04:45.186Z,97230.23
2023-02-17T08:07:13.438Z,97229.02
2023-02-17T08:10:00.058Z,97229.46
2023-02-17T08:12:46.723Z,97221.52
2023-02-17T08:15:14.836Z,97228.35
2023-02-17T08:17:44.481Z,97231.50
2023-02-17T08:20:15.269Z,97228.39
2023-02-17T08:22:43.761Z,97235.59
2023-02-17T08:25:11.936Z,97226.91
2023-02-17T08:31:36.352Z,97238.58
2023-02-17T08:34:08.503Z,97255.74
2023-02-17T08:36:40.083Z,97246.86
2023-02-17T08:39:13.037Z,97254.48
2023-02-17T08:41:42.259Z,97263.17
2023-02-17T08:44:14.717Z,97258.71
2023-02-17T08:46:44.087Z,97254.88
2023-02-17T08:49:12.350Z,97271.10
2023-02-17T08:51:40.777Z,97263.16
2023-02-17T08:54:11.340Z,97262.18
2023-02-17T08:56:40.975Z,97266.95
2023-02-17T08:59:14.782Z,97262.05
2023-02-17T09:01:49.399Z,97257.65
2023-02-17T09:04:18.773Z,97264.52
2023-02-17T09:06:52.772Z,97263.39
2023-02-17T09:09:23.278Z,97265.33
2023-02-17T09:11:51.480Z,97257.09
2023-02-17T09:14:19.490Z,97257.80
2023-02-17T09:16:47.446Z,97257.81
2023-02-17T09:19:15.494Z,97258.77
2023-02-17T09:21:43.401Z,97254.90
2023-02-17T09:24:11.729Z,97253.39
2023-02-17T09:26:40.135Z,97252.15
2023-02-17T09:29:08.349Z,97255.66
2023-02-17T09:31:37.217Z,97251.73
2023-02-17T09:34:06.373Z,97254.89
2023-02-17T09:36:39.579Z,97258.86
2023-02-17T09:39:11.579Z,97262.78
2023-02-17T09:41:45.712Z,97261.54
2023-02-17T09:44:21.201Z,97265.14
2023-02-17T09:47:10.647Z,97266.13
2023-02-17T09:49:43.481Z,97268.38
2023-02-17T09:52:26.116Z,97264.45
2023-02-17T09:55:06.217Z,97261.20
2023-02-17T09:58:06.979Z,97261.61
2023-02-17T10:00:47.046Z,97264.65
2023-02-17T10:03:31.177Z,97262.29
2023-02-17T10:06:09.882Z,97264.81
2023-02-17T10:08:58.940Z,97260.39
2023-02-17T10:11:34.283Z,97255.17
2023-02-17T10:14:14.347Z,97254.19
2023-02-17T10:16:49.476Z,97254.08
2023-02-17T10:19:35.998Z,97253.74
2023-02-17T10:22:15.403Z,97247.91
2023-02-17T10:24:43.580Z,97251.00
2023-02-17T10:27:36.177Z,97249.98
2023-02-17T10:30:23.038Z,97247.45
2023-02-17T10:33:01.296Z,97236.90
2023-02-17T10:35:48.081Z,97232.71
2023-02-17T10:38:37.205Z,97224.73
2023-02-17T10:41:10.046Z,97220.33
2023-02-17T10:43:38.221Z,97216.19
2023-02-17T10:46:09.011Z,97215.39
2023-02-17T10:48:54.771Z,97212.26
2023-02-17T10:51:26.715Z,97206.30
2023-02-17T10:54:14.804Z,97206.55
2023-02-17T10:56:48.227Z,97204.64
2023-02-17T10:59:24.055Z,97198.13
2023-02-17T11:01:52.561Z,97195.46
2023-02-17T11:04:20.622Z,97193.07
2023-02-17T11:06:52.235Z,97192.64
2023-02-17T11:09:29.558Z,97188.25
2023-02-17T11:12:04.401Z,97181.63
2023-02-17T11:14:33.821Z,97178.77
2023-02-17T11:17:23.669Z,97172.95
2023-02-17T11:20:05.935Z,97167.35
2023-02-17T11:22:36.410Z,97163.50
2023-02-17T11:25:22.405Z,97159.20
2023-02-17T11:28:05.113Z,97155.88
2023-02-17T11:30:35.765Z,97157.31
2023-02-17T11:33:14.597Z,97160.38
2023-02-17T11:35:42.640Z,97156.23
2023-02-17T11:38:23.128Z,97154.82
2023-02-17T11:41:04.499Z,97151.63
2023-02-17T11:43:33.534Z,97150.40
2023-02-17T11:46:16.890Z,97147.27
2023-02-17T11:48:49.708Z,97140.23
2023-02-17T11:51:39.483Z,97142.55
2023-02-17T11:54:30.325Z,97151.15
2023-02-17T11:57:16.384Z,97155.06
2023-02-17T12:00:15.425Z,97150.80
2023-02-17T12:03:05.313Z,97146.80
2023-02-17T12:05:51.808Z,97140.11
2023-02-17T12:08:55.313Z,97135.00
2023-02-17T12:11:56.084Z,97132.92
2023-02-17T12:14:46.866Z,97132.66
2023-02-17T12:17:27.007Z,97133.29
2023-02-17T12:20:21.454Z,97128.23
2023-02-17T12:23:00.966Z,97127.13
2023-02-17T12:25:37.668Z,97125.67
2023-02-17T12:28:47.561Z,97122.80
2023-02-17T12:31:21.455Z,97121.84
2023-02-17T12:34:06.901Z,97120.59
2023-02-17T12:36:39.413Z,97116.85
2023-02-17T12:39:44.420Z,97114.98
2023-02-17T12:42:15.798Z,97107.92
2023-02-17T12:44:47.904Z,97113.18
2023-02-17T12:47:23.260Z,97111.66
2023-02-17T12:50:33.234Z,97116.22
2023-02-17T12:53:05.308Z,97117.21
2023-02-17T12:55:53.675Z,97116.43
2023-02-17T12:58:26.730Z,97113.14
2023-02-17T13:01:07.256Z,97108.14
2023-02-17T13:03:37.608Z,97111.11
2023-02-17T13:06:21.874Z,97109.36
2023-02-17T13:08:56.163Z,97108.58
2023-02-17T13:11:31.588Z,97110.25
2023-02-17T13:14:24.395Z,97108.17
2023-02-17T13:16:52.663Z,97110.23
2023-02-17T13:19:32.285Z,97108.67
2023-02-17T13:22:02.486Z,97108.97
2023-02-17T13:24:34.305Z,97105.18
2023-02-17T13:27:20.907Z,97101.59
2023-02-17T13:30:06.540Z,97101.86
2023-02-17T13:32:40.499Z,97107.46
2023-02-17T13:35:14.720Z,97113.81
2023-02-17T13:37:46.154Z,97111.63
2023-02-17T13:40:20.058Z,97110.03
2023-02-17T13:42:53.258Z,97110.17
2023-02-17T13:45:26.750Z,97107.75
2023-02-17T13:48:01.045Z,97107.34
2023-02-17T13:50:33.718Z,97100.73
2023-02-17T13:53:06.544Z,97100.27
2023-02-17T13:55:35.238Z,97105.80
2023-02-17T13:58:03.902Z,97105.46
2023-02-17T14:00:32.535Z,97101.91
2023-02-17T14:03:27.232Z,97097.30
2023-02-17T14:06:01.273Z,97089.67
2023-02-17T14:08:32.443Z,97089.56
2023-02-17T14:11:12.557Z,97092.30
2023-02-17T14:13:46.987Z,97093.23
2023-02-17T14:16:37.825Z,97090.00
2023-02-17T14:19:17.469Z,97096.65
2023-02-17T14:22:06.317Z,97095.08
2023-02-17T14:24:38.654Z,97099.42
2023-02-17T14:27:14.309Z,97094.37
2023-02-17T14:29:45.875Z,97092.73
2023-02-17T14:32:38.441Z,97091.21
2023-02-17T14:35:10.666Z,97093.77
2023-02-17T14:37:40.039Z,97090.48
2023-02-17T14:40:28.440Z,97085.86
2023-02-17T14:42:56.450Z,97090.68
2023-02-17T14:45:24.510Z,97088.88
2023-02-17T14:47:52.587Z,97089.27
2023-02-17T14:50:20.618Z,97090.58
2023-02-17T14:52:49.748Z,97085.27
2023-02-17T14:55:29.802Z,97083.91
2023-02-17T14:57:58.265Z,97079.73
2023-02-17T15:00:27.854Z,97074.40
2023-02-17T15:02:56.170Z,97067.70
2023-02-17T15:05:24.447Z,97070.52
2023-02-17T15:07:52.431Z,97067.55
2023-02-17T15:10:28.277Z,97072.25
2023-02-17T15:12:57.165Z,97070.85
2023-02-17T15:15:25.339Z,97063.77
2023-02-17T15:17:53.706Z,97062.23
2023-02-17T15:20:21.686Z,97062.10
2023-02-17T15:22:53.009Z,97060.53
2023-02-17T15:25:24.587Z,97068.79
2023-02-17T15:27:52.669Z,97066.06
2023-02-17T15:30:21.504Z,97062.52
2023-02-17T15:32:49.831Z,97059.52
2023-02-17T15:35:22.843Z,97060.52
2023-02-17T15:37:51.392Z,97060.55
2023-02-17T15:40:23.658Z,97060.99
2023-02-17T15:42:55.655Z,97059.02
2023-02-17T15:45:24.817Z,97052.61
2023-02-17T15:48:03.640Z,97054.84
2023-02-17T15:50:32.441Z,97057.68
2023-02-17T15:53:00.622Z,97058.77
2023-02-17T15:55:29.190Z,97062.77
2023-02-17T15:58:02.563Z,97067.63
2023-02-17T16:00:35.852Z,97071.97
2023-02-17T16:03:04.704Z,97075.81
2023-02-17T16:05:33.766Z,97080.21
2023-02-17T16:08:01.672Z,97085.97
2023-02-17T16:10:31.875Z,97090.25
2023-02-17T16:13:01.907Z,97088.88
2023-02-17T16:15:32.897Z,97088.48
2023-02-17T16:18:01.174Z,97093.55
2023-02-17T16:20:35.171Z,97094.63
2023-02-17T16:23:03.787Z,97094.20
2023-02-17T16:25:32.167Z,97082.14
2023-02-17T16:28:00.723Z,97082.42
2023-02-17T16:30:34.978Z,97074.30
2023-02-17T16:33:03.962Z,97079.20
2023-02-17T16:35:32.976Z,97076.23
2023-02-17T16:38:05.904Z,97081.48
2023-02-17T16:40:37.405Z,97087.66
2023-02-17T16:43:05.460Z,97089.84
2023-02-17T16:45:34.276Z,97089.10
2023-02-17T16:48:02.831Z,97096.36
2023-02-17T16:50:34.494Z,97084.58
2023-02-17T16:53:06.306Z,97087.06
2023-02-17T16:55:35.864Z,97081.92
2023-02-17T16:58:05.056Z,97081.45
2023-02-17T17:00:33.533Z,97081.35
2023-02-17T17:03:01.607Z,97073.33
2023-02-17T17:05:31.320Z,97075.44
2023-02-17T17:07:59.502Z,97072.93
2023-02-17T17:10:30.851Z,97062.40
2023-02-17T17:13:00.037Z,97058.00
2023-02-17T17:15:28.614Z,97064.77
2023-02-17T17:17:59.992Z,97063.85
2023-02-17T17:20:32.288Z,97055.77
2023-02-17T17:23:02.768Z,97053.57
2023-02-17T17:25:32.158Z,97053.69
2023-02-17T17:28:00.366Z,97051.73
2023-02-17T17:30:31.782Z,97048.09
2023-02-17T17:32:59.990Z,97047.30
2023-02-17T17:35:29.483Z,97060.77
2023-02-17T17:37:58.776Z,97056.73
2023-02-17T17:40:30.125Z,97056.76
2023-02-17T17:42:59.524Z,97054.17
2023-02-17T17:45:27.706Z,97048.23
2023-02-17T17:47:55.700Z,97052.34
2023-02-17T17:50:24.854Z,97054.13
2023-02-17T17:52:53.488Z,97054.44
2023-02-17T17:55:23.265Z,97063.02
2023-02-17T17:57:51.337Z,97067.59
2023-02-17T18:00:20.135Z,97070.23
2023-02-17T18:02:48.303Z,97068.77
2023-02-17T18:05:16.594Z,97058.52
2023-02-17T18:07:48.032Z,97059.52
2023-02-17T18:10:16.724Z,97068.13
2023-02-17T18:12:47.315Z,97069.91
2023-02-17T18:15:17.335Z,97069.64
2023-02-17T18:17:47.508Z,97073.36
2023-02-17T18:20:16.039Z,97074.54
2023-02-17T18:22:44.265Z,97068.36
2023-02-17T18:25:12.828Z,97064.75
2023-02-17T18:27:46.758Z,97063.17
2023-02-17T18:30:18.167Z,97056.50
2023-02-17T18:32:47.081Z,97052.01
2023-02-17T18:35:15.964Z,97045.34
2023-02-17T18:37:45.137Z,97047.70
2023-02-17T18:40:17.262Z,97047.11
2023-02-17T18:42:48.475Z,97055.06
2023-02-17T18:45:17.191Z,97052.60
2023-02-17T18:47:46.399Z,97048.20
2023-02-17T18:50:16.353Z,97052.17
2023-02-17T18:52:44.949Z,97052.23
2023-02-17T18:55:13.706Z,97046.70
2023-02-17T18:57:42.125Z,97040.59
2023-02-17T19:00:11.249Z,97030.50
2023-02-17T19:02:40.897Z,97016.23
2023-02-17T19:05:11.051Z,97012.23
2023-02-17T19:07:39.330Z,97004.08
2023-02-17T19:10:08.420Z,96998.39
2023-02-17T19:12:38.032Z,97001.87
2023-02-17T19:15:11.201Z,96992.92
2023-02-17T19:17:39.306Z,96982.63
2023-02-17T19:20:09.001Z,96980.81
2023-02-17T19:22:37.890Z,96980.88
2023-02-17T19:25:09.369Z,96972.58
2023-02-17T19:27:40.790Z,96974.54
2023-02-17T19:30:10.519Z,96978.86
2023-02-17T19:32:38.677Z,96974.67
2023-02-17T19:35:07.221Z,96965.96
2023-02-17T19:37:35.758Z,96967.36
2023-02-17T19:40:04.552Z,96960.92
2023-02-17T19:42:32.709Z,96957.86
2023-02-17T19:45:00.793Z,96951.46
2023-02-17T19:47:30.918Z,96947.71
2023-02-17T19:49:59.478Z,96946.20
2023-02-17T19:52:28.297Z,96940.17
2023-02-17T19:54:58.914Z,96931.97
2023-02-17T19:57:26.882Z,96927.52
2023-02-17T19:59:55.159Z,96921.73
2023-02-17T20:02:23.337Z,96920.45
2023-02-17T20:04:51.702Z,96915.02
2023-02-17T20:07:19.686Z,96913.52
2023-02-17T20:09:47.964Z,96911.06
2023-02-17T20:12:17.838Z,96911.76
2023-02-17T20:14:46.051Z,96907.95
2023-02-17T20:17:15.446Z,96909.84
2023-02-17T20:19:43.517Z,96902.98
2023-02-17T20:22:12.184Z,96908.60
2023-02-17T20:24:42.118Z,96905.07
2023-02-17T20:27:11.109Z,96902.62
2023-02-17T20:29:39.815Z,96905.65
2023-02-17T20:32:08.588Z,96900.23
2023-02-17T20:34:41.882Z,96894.73
2023-02-17T20:37:11.072Z,96897.90
2023-02-17T20:39:40.577Z,96895.08
2023-02-17T20:42:09.073Z,96893.31
2023-02-17T20:44:37.463Z,96881.85
2023-02-17T20:47:05.720Z,96877.45
2023-02-17T20:49:33.696Z,96871.30
2023-02-17T20:52:01.756Z,96866.81
2023-02-17T20:54:29.805Z,96859.46
2023-02-17T20:57:01.205Z,96860.82
2023-02-17T20:59:29.263Z,96852.38
2023-02-17T21:01:57.458Z,96854.64
2023-02-17T21:04:25.508Z,96850.95
2023-02-17T21:06:53.777Z,96848.42
2023-02-17T21:09:21.991Z,96845.46
2023-02-17T21:11:50.311Z,96832.30
2023-02-17T21:14:18.434Z,96828.02
2023-02-17T21:16:46.546Z,96825.98
2023-02-17T21:19:14.926Z,96824.05
2023-02-17T21:21:43.039Z,96823.34
2023-02-17T21:24:12.224Z,96825.59
2023-02-17T21:26:42.042Z,96822.77
2023-02-17T21:29:10.093Z,96818.42
2023-02-17T21:31:38.326Z,96813.20
2023-02-17T21:34:07.281Z,96809.72
2023-02-17T21:36:35.352Z,96805.79
2023-02-17T21:39:04.454Z,96794.60
2023-02-17T21:41:33.686Z,96792.23
2023-02-17T21:44:20.663Z,96794.86
2023-02-17T21:46:48.807Z,96784.14
2023-02-17T21:49:16.907Z,96771.84
2023-02-17T21:51:44.961Z,96767.39
2023-02-17T21:54:13.051Z,96770.90
2023-02-17T21:56:41.434Z,96760.46
2023-02-17T21:59:09.930Z,96760.77
2023-02-17T22:01:38.284Z,96757.45
2023-02-17T22:04:06.421Z,96753.63
2023-02-17T22:06:37.440Z,96758.66
2023-02-17T22:09:07.859Z,96751.04
2023-02-17T22:11:40.145Z,96747.85
2023-02-17T22:14:12.781Z,96742.55
2023-02-17T22:16:41.397Z,96741.45
2023-02-17T22:19:14.673Z,96738.79
2023-02-17T22:21:43.860Z,96741.04
2023-02-17T22:24:12.326Z,96732.85
2023-02-17T22:26:40.663Z,96742.25
2023-02-17T22:29:08.671Z,96750.24
2023-02-17T22:31:36.947Z,96746.29
2023-02-17T22:34:09.953Z,96746.83
2023-02-17T22:36:38.639Z,96749.11
2023-02-17T22:39:08.039Z,96747.48
2023-02-17T22:41:36.697Z,96740.30
2023-02-17T22:44:05.006Z,96740.09
2023-02-17T22:46:33.579Z,96745.54
2023-02-17T22:49:02.157Z,96744.45
2023-02-17T22:51:34.445Z,96745.05
2023-02-17T22:54:02.613Z,96741.00
2023-02-17T22:56:31.666Z,96736.44
2023-02-17T22:59:05.501Z,96733.98
2023-02-17T23:01:35.847Z,96728.39
2023-02-17T23:04:04.881Z,96712.02
2023-02-17T23:06:36.587Z,96705.66
2023-02-17T23:09:07.111Z,96708.19
2023-02-17T23:11:57.784Z,96705.70
2023-02-17T23:14:33.271Z,96694.79
2023-02-17T23:17:09.448Z,96685.88
2023-02-17T23:19:38.981Z,96676.58
2023-02-17T23:22:11.308Z,96661.08
2023-02-17T23:24:40.304Z,96653.52
2023-02-17T23:27:08.574Z,96643.29
2023-02-17T23:29:38.111Z,96643.46
2023-02-17T23:32:07.102Z,96650.43
2023-02-17T23:34:35.261Z,96655.45
2023-02-17T23:37:03.425Z,96661.08
2023-02-17T23:39:31.809Z,96663.67
2023-02-17T23:41:59.782Z,96659.37
2023-02-17T23:44:27.740Z,96658.31
2023-02-17T23:46:55.822Z,96656.12
2023-02-17T23:49:24.195Z,96660.32
2023-02-17T23:51:52.571Z,96659.55
2023-02-17T23:54:20.610Z,96652.90
2023-02-17T23:56:48.625Z,96658.26
2023-02-17T23:59:16.992Z,96662.56
